sensor_id;sensor_type;location;lat;lon;timestamp;pressure;altitude;pressure_sealevel;temperature;humidity
32324;BME280;25666;44.350;9.222;2023-08-06T00:02:25;100621.59;;;18.95;100.00
32324;BME280;25666;44.350;9.222;2023-08-06T00:04:51;100631.34;;;18.84;100.00
32324;BME280;25666;44.350;9.222;2023-08-06T00:07:16;100630.88;;;18.92;100.00
32324;BME280;25666;44.350;9.222;2023-08-06T00:09:42;100626.91;;;18.83;100.00
32324;BME280;25666;44.350;9.222;2023-08-06T00:12:07;100622.84;;;18.98;100.00
32324;BME280;25666;44.350;9.222;2023-08-06T00:14:33;100630.84;;;19.03;100.00
32324;BME280;25666;44.350;9.222;2023-08-06T00:16:58;100622.47;;;18.85;100.00
32324;BME280;25666;44.350;9.222;2023-08-06T00:19:24;100618.38;;;19.00;100.00
32324;BME280;25666;44.350;9.222;2023-08-06T00:21:49;100625.31;;;18.85;100.00
32324;BME280;25666;44.350;9.222;2023-08-06T00:24:15;100625.69;;;18.87;100.00
32324;BME280;25666;44.350;9.222;2023-08-06T00:26:41;100626.44;;;18.98;100.00
32324;BME280;25666;44.350;9.222;2023-08-06T00:29:06;100633.34;;;18.87;100.00
32324;BME280;25666;44.350;9.222;2023-08-06T00:31:32;100623.69;;;18.88;100.00
32324;BME280;25666;44.350;9.222;2023-08-06T00:33:57;100631.66;;;19.03;100.00
32324;BME280;25666;44.350;9.222;2023-08-06T00:36:23;100625.25;;;18.96;100.00
32324;BME280;25666;44.350;9.222;2023-08-06T00:38:48;100634.59;;;18.82;100.00
32324;BME280;25666;44.350;9.222;2023-08-06T00:41:14;100632.16;;;18.84;100.00
32324;BME280;25666;44.350;9.222;2023-08-06T00:43:42;100641.44;;;18.78;100.00
32324;BME280;25666;44.350;9.222;2023-08-06T00:46:08;100639.78;;;18.87;100.00
32324;BME280;25666;44.350;9.222;2023-08-06T00:48:34;100638.16;;;18.86;100.00
32324;BME280;25666;44.350;9.222;2023-08-06T00:51:00;100637.81;;;18.73;100.00
32324;BME280;25666;44.350;9.222;2023-08-06T00:53:26;100637.44;;;18.71;100.00
32324;BME280;25666;44.350;9.222;2023-08-06T00:55:52;100630.13;;;18.88;100.00
32324;BME280;25666;44.350;9.222;2023-08-06T00:58:18;100642.63;;;18.77;100.00
32324;BME280;25666;44.350;9.222;2023-08-06T01:00:44;100631.34;;;18.84;100.00
32324;BME280;25666;44.350;9.222;2023-08-06T01:03:11;100624.47;;;18.88;100.00
32324;BME280;25666;44.350;9.222;2023-08-06T01:05:36;100623.28;;;18.86;100.00
32324;BME280;25666;44.350;9.222;2023-08-06T01:13:41;100634.59;;;18.82;100.00
32324;BME280;25666;44.350;9.222;2023-08-06T01:16:09;100634.97;;;18.81;100.00
32324;BME280;25666;44.350;9.222;2023-08-06T01:18:35;100631.41;;;18.66;100.00
32324;BME280;25666;44.350;9.222;2023-08-06T01:21:04;100629.44;;;18.52;100.00
32324;BME280;25666;44.350;9.222;2023-08-06T01:23:30;100628.22;;;18.46;100.00
32324;BME280;25666;44.350;9.222;2023-08-06T01:26:09;100624.59;;;18.60;100.00
32324;BME280;25666;44.350;9.222;2023-08-06T01:28:51;100624.97;;;18.69;100.00
32324;BME280;25666;44.350;9.222;2023-08-06T01:31:34;100620.03;;;18.87;100.00
32324;BME280;25666;44.350;9.222;2023-08-06T01:34:02;100618.41;;;18.93;100.00
32324;BME280;25666;44.350;9.222;2023-08-06T01:36:29;100609.16;;;18.89;100.00
32324;BME280;25666;44.350;9.222;2023-08-06T01:38:55;100615.97;;;18.95;100.00
32324;BME280;25666;44.350;9.222;2023-08-06T01:41:22;100616.00;;;18.92;100.00
32324;BME280;25666;44.350;9.222;2023-08-06T01:43:48;100615.13;;;19.02;100.00
32324;BME280;25666;44.350;9.222;2023-08-06T01:46:13;100620.00;;;18.98;100.00
32324;BME280;25666;44.350;9.222;2023-08-06T01:48:39;100623.31;;;18.79;100.00
32324;BME280;25666;44.350;9.222;2023-08-06T01:51:04;100626.91;;;18.83;100.00
32324;BME280;25666;44.350;9.222;2023-08-06T01:53:31;100611.56;;;18.91;100.00
32324;BME280;25666;44.350;9.222;2023-08-06T01:55:57;100616.75;;;18.99;100.00
32324;BME280;25666;44.350;9.222;2023-08-06T01:58:23;100619.25;;;18.83;100.00
32324;BME280;25666;44.350;9.222;2023-08-06T02:00:48;100623.66;;;18.95;100.00
32324;BME280;25666;44.350;9.222;2023-08-06T02:03:14;100627.25;;;18.99;100.00
32324;BME280;25666;44.350;9.222;2023-08-06T02:05:40;100611.13;;;18.96;100.00
32324;BME280;25666;44.350;9.222;2023-08-06T02:08:06;100609.94;;;18.97;100.00
32324;BME280;25666;44.350;9.222;2023-08-06T02:10:32;100613.97;;;18.96;100.00
32324;BME280;25666;44.350;9.222;2023-08-06T02:12:58;100606.66;;;19.02;100.00
32324;BME280;25666;44.350;9.222;2023-08-06T02:15:23;100600.69;;;18.89;100.00
32324;BME280;25666;44.350;9.222;2023-08-06T02:17:49;100602.28;;;18.94;100.00
32324;BME280;25666;44.350;9.222;2023-08-06T02:20:14;100600.63;;;19.07;100.00
32324;BME280;25666;44.350;9.222;2023-08-06T02:22:40;100592.88;;;19.18;100.00
32324;BME280;25666;44.350;9.222;2023-08-06T02:25:07;100601.31;;;19.21;100.00
32324;BME280;25666;44.350;9.222;2023-08-06T02:27:34;100597.38;;;19.08;100.00
32324;BME280;25666;44.350;9.222;2023-08-06T02:30:00;100592.13;;;19.10;100.00
32324;BME280;25666;44.350;9.222;2023-08-06T02:32:26;100598.13;;;19.19;100.00
32324;BME280;25666;44.350;9.222;2023-08-06T02:34:51;100585.59;;;19.24;100.00
32324;BME280;25666;44.350;9.222;2023-08-06T02:37:17;100584.78;;;19.23;100.00
32324;BME280;25666;44.350;9.222;2023-08-06T02:39:44;100582.44;;;19.11;100.00
32324;BME280;25666;44.350;9.222;2023-08-06T02:42:09;100588.41;;;19.20;100.00
32324;BME280;25666;44.350;9.222;2023-08-06T02:44:35;100589.31;;;19.10;100.00
32324;BME280;25666;44.350;9.222;2023-08-06T02:47:01;100591.28;;;19.17;100.00
32324;BME280;25666;44.350;9.222;2023-08-06T02:49:27;100588.53;;;19.06;100.00
32324;BME280;25666;44.350;9.222;2023-08-06T02:51:53;100591.34;;;19.03;100.00
32324;BME280;25666;44.350;9.222;2023-08-06T02:54:19;100587.69;;;19.09;100.00
32324;BME280;25666;44.350;9.222;2023-08-06T02:56:45;100592.63;;;18.91;100.00
32324;BME280;25666;44.350;9.222;2023-08-06T02:59:25;100579.81;;;18.76;100.00
32324;BME280;25666;44.350;9.222;2023-08-06T03:02:07;100583.75;;;18.89;100.00
32324;BME280;25666;44.350;9.222;2023-08-06T03:04:50;100580.06;;;19.03;100.00
32324;BME280;25666;44.350;9.222;2023-08-06T03:07:18;100577.34;;;18.89;100.00
32324;BME280;25666;44.350;9.222;2023-08-06T03:09:52;100584.09;;;19.02;100.00
32324;BME280;25666;44.350;9.222;2023-08-06T03:12:19;100579.38;;;18.85;100.00
32324;BME280;25666;44.350;9.222;2023-08-06T03:14:44;100577.38;;;18.82;100.00
32324;BME280;25666;44.350;9.222;2023-08-06T03:17:10;100586.91;;;19.02;100.00
32324;BME280;25666;44.350;9.222;2023-08-06T03:19:36;100579.72;;;18.94;100.00
32324;BME280;25666;44.350;9.222;2023-08-06T03:22:03;100568.09;;;18.88;100.00
32324;BME280;25666;44.350;9.222;2023-08-06T03:24:29;100563.19;;;18.92;100.00
32324;BME280;25666;44.350;9.222;2023-08-06T03:26:55;100569.72;;;18.82;100.00
32324;BME280;25666;44.350;9.222;2023-08-06T03:29:20;100566.09;;;18.85;100.00
32324;BME280;25666;44.350;9.222;2023-08-06T03:31:48;100567.66;;;18.90;100.00
32324;BME280;25666;44.350;9.222;2023-08-06T03:34:15;100556.81;;;18.81;100.00
32324;BME280;25666;44.350;9.222;2023-08-06T03:36:41;100554.00;;;18.81;100.00
32324;BME280;25666;44.350;9.222;2023-08-06T03:39:06;100556.00;;;18.88;100.00
32324;BME280;25666;44.350;9.222;2023-08-06T03:41:32;100551.50;;;19.01;100.00
32324;BME280;25666;44.350;9.222;2023-08-06T03:43:58;100558.38;;;18.93;100.00
32324;BME280;25666;44.350;9.222;2023-08-06T03:46:25;100553.97;;;18.88;100.00
32324;BME280;25666;44.350;9.222;2023-08-06T03:48:51;100558.03;;;18.77;100.00
32324;BME280;25666;44.350;9.222;2023-08-06T03:51:17;100558.09;;;18.73;100.00
32324;BME280;25666;44.350;9.222;2023-08-06T03:53:44;100561.72;;;18.70;100.00
32324;BME280;25666;44.350;9.222;2023-08-06T03:56:10;100559.22;;;18.83;100.00
32324;BME280;25666;44.350;9.222;2023-08-06T03:58:35;100558.50;;;18.68;100.00
32324;BME280;25666;44.350;9.222;2023-08-06T04:01:02;100564.84;;;18.86;100.00
32324;BME280;25666;44.350;9.222;2023-08-06T04:03:34;100567.63;;;18.97;100.00
32324;BME280;25666;44.350;9.222;2023-08-06T04:05:59;100568.84;;;18.92;100.00
32324;BME280;25666;44.350;9.222;2023-08-06T04:08:27;100564.13;;;18.68;100.00
32324;BME280;25666;44.350;9.222;2023-08-06T04:10:53;100568.50;;;18.80;100.00
32324;BME280;25666;44.350;9.222;2023-08-06T04:13:20;100566.09;;;18.78;100.00
32324;BME280;25666;44.350;9.222;2023-08-06T04:15:46;100571.84;;;18.60;100.00
32324;BME280;25666;44.350;9.222;2023-08-06T04:18:12;100579.41;;;18.74;100.00
32324;BME280;25666;44.350;9.222;2023-08-06T04:20:47;100576.22;;;18.68;100.00
32324;BME280;25666;44.350;9.222;2023-08-06T04:23:14;100580.22;;;18.75;100.00
32324;BME280;25666;44.350;9.222;2023-08-06T04:25:41;100583.06;;;18.64;100.00
32324;BME280;25666;44.350;9.222;2023-08-06T04:28:07;100591.56;;;18.60;100.00
32324;BME280;25666;44.350;9.222;2023-08-06T04:30:33;100594.00;;;18.44;100.00
32324;BME280;25666;44.350;9.222;2023-08-06T04:33:00;100586.69;;;18.71;100.00
32324;BME280;25666;44.350;9.222;2023-08-06T04:35:26;100581.00;;;18.82;100.00
32324;BME280;25666;44.350;9.222;2023-08-06T04:37:52;100579.78;;;18.80;100.00
32324;BME280;25666;44.350;9.222;2023-08-06T04:40:17;100585.41;;;18.83;100.00
32324;BME280;25666;44.350;9.222;2023-08-06T04:42:43;100588.16;;;19.01;100.00
32324;BME280;25666;44.350;9.222;2023-08-06T04:45:09;100586.53;;;19.00;100.00
32324;BME280;25666;44.350;9.222;2023-08-06T04:47:34;100579.34;;;18.88;100.00
32324;BME280;25666;44.350;9.222;2023-08-06T04:50:00;100594.19;;;18.99;100.00
32324;BME280;25666;44.350;9.222;2023-08-06T04:52:26;100593.81;;;18.97;100.00
32324;BME280;25666;44.350;9.222;2023-08-06T04:54:54;100601.09;;;18.95;100.00
32324;BME280;25666;44.350;9.222;2023-08-06T04:57:19;100597.44;;;19.01;100.00
32324;BME280;25666;44.350;9.222;2023-08-06T04:59:45;100601.38;;;19.11;100.00
32324;BME280;25666;44.350;9.222;2023-08-06T05:02:11;100608.25;;;19.10;100.00
32324;BME280;25666;44.350;9.222;2023-08-06T05:04:36;100596.88;;;19.20;100.00
32324;BME280;25666;44.350;9.222;2023-08-06T05:07:02;100595.31;;;19.16;100.00
32324;BME280;25666;44.350;9.222;2023-08-06T05:09:27;100596.13;;;19.20;100.00
32324;BME280;25666;44.350;9.222;2023-08-06T05:11:53;100606.59;;;19.16;100.00
32324;BME280;25666;44.350;9.222;2023-08-06T05:14:18;100600.84;;;19.34;100.00
32324;BME280;25666;44.350;9.222;2023-08-06T05:16:44;100603.28;;;19.32;100.00
32324;BME280;25666;44.350;9.222;2023-08-06T05:19:09;100613.81;;;19.20;100.00
32324;BME280;25666;44.350;9.222;2023-08-06T05:21:35;100615.41;;;19.29;100.00
32324;BME280;25666;44.350;9.222;2023-08-06T05:24:00;100618.47;;;19.52;100.00
32324;BME280;25666;44.350;9.222;2023-08-06T05:26:26;100618.69;;;19.78;100.00
32324;BME280;25666;44.350;9.222;2023-08-06T05:28:51;100620.38;;;19.72;100.00
32324;BME280;25666;44.350;9.222;2023-08-06T05:31:17;100623.50;;;19.82;100.00
32324;BME280;25666;44.350;9.222;2023-08-06T05:33:42;100609.31;;;19.92;100.00
32324;BME280;25666;44.350;9.222;2023-08-06T05:36:08;100605.97;;;20.04;100.00
32324;BME280;25666;44.350;9.222;2023-08-06T05:38:33;100604.13;;;20.28;100.00
32324;BME280;25666;44.350;9.222;2023-08-06T05:40:59;100610.28;;;20.57;100.00
32324;BME280;25666;44.350;9.222;2023-08-06T05:43:24;100623.00;;;20.75;100.00
32324;BME280;25666;44.350;9.222;2023-08-06T05:45:50;100613.84;;;20.95;100.00
32324;BME280;25666;44.350;9.222;2023-08-06T05:48:16;100602.78;;;21.07;100.00
32324;BME280;25666;44.350;9.222;2023-08-06T05:50:42;100603.84;;;21.47;100.00
32324;BME280;25666;44.350;9.222;2023-08-06T05:53:07;100595.69;;;21.99;100.00
32324;BME280;25666;44.350;9.222;2023-08-06T05:55:33;100609.31;;;22.31;100.00
32324;BME280;25666;44.350;9.222;2023-08-06T05:57:59;100610.63;;;22.89;100.00
32324;BME280;25666;44.350;9.222;2023-08-06T06:00:25;100609.47;;;24.07;100.00
32324;BME280;25666;44.350;9.222;2023-08-06T06:02:50;100603.16;;;25.81;100.00
32324;BME280;25666;44.350;9.222;2023-08-06T06:05:16;100600.06;;;27.12;100.00
32324;BME280;25666;44.350;9.222;2023-08-06T06:07:41;100605.06;;;28.10;100.00
32324;BME280;25666;44.350;9.222;2023-08-06T06:10:07;100591.91;;;28.94;100.00
32324;BME280;25666;44.350;9.222;2023-08-06T06:12:33;100585.38;;;30.34;100.00
32324;BME280;25666;44.350;9.222;2023-08-06T06:14:59;100584.03;;;31.26;100.00
32324;BME280;25666;44.350;9.222;2023-08-06T06:17:28;100578.06;;;31.45;98.88
32324;BME280;25666;44.350;9.222;2023-08-06T06:19:54;100585.22;;;31.64;98.25
32324;BME280;25666;44.350;9.222;2023-08-06T06:22:19;100589.78;;;34.22;71.05
32324;BME280;25666;44.350;9.222;2023-08-06T06:24:45;100591.69;;;35.23;61.21
32324;BME280;25666;44.350;9.222;2023-08-06T06:27:10;100594.53;;;35.95;53.82
32324;BME280;25666;44.350;9.222;2023-08-06T06:29:36;100594.84;;;35.70;53.49
32324;BME280;25666;44.350;9.222;2023-08-06T06:32:01;100582.69;;;35.99;54.35
32324;BME280;25666;44.350;9.222;2023-08-06T06:34:27;100574.66;;;37.26;49.50
32324;BME280;25666;44.350;9.222;2023-08-06T06:36:55;100568.59;;;38.69;43.91
32324;BME280;25666;44.350;9.222;2023-08-06T06:39:30;100577.81;;;38.92;43.25
32324;BME280;25666;44.350;9.222;2023-08-06T06:41:56;100575.25;;;39.84;40.53
32324;BME280;25666;44.350;9.222;2023-08-06T06:44:29;100588.59;;;39.47;39.06
32324;BME280;25666;44.350;9.222;2023-08-06T06:46:55;100588.38;;;39.45;38.42
32324;BME280;25666;44.350;9.222;2023-08-06T06:49:21;100584.88;;;39.34;38.47
32324;BME280;25666;44.350;9.222;2023-08-06T06:51:46;100585.69;;;40.58;36.46
32324;BME280;25666;44.350;9.222;2023-08-06T06:54:12;100582.84;;;41.33;35.30
32324;BME280;25666;44.350;9.222;2023-08-06T06:56:37;100579.59;;;41.37;33.64
32324;BME280;25666;44.350;9.222;2023-08-06T06:59:03;100576.59;;;41.99;33.41
32324;BME280;25666;44.350;9.222;2023-08-06T07:01:28;100568.47;;;44.51;29.72
32324;BME280;25666;44.350;9.222;2023-08-06T07:03:54;100562.16;;;44.69;28.96
32324;BME280;25666;44.350;9.222;2023-08-06T07:06:19;100554.72;;;44.68;27.96
32324;BME280;25666;44.350;9.222;2023-08-06T07:08:45;100555.84;;;44.26;27.72
32324;BME280;25666;44.350;9.222;2023-08-06T07:11:10;100555.53;;;43.68;28.08
32324;BME280;25666;44.350;9.222;2023-08-06T07:13:36;100555.34;;;43.66;28.03
32324;BME280;25666;44.350;9.222;2023-08-06T07:16:02;100553.38;;;43.61;29.24
32324;BME280;25666;44.350;9.222;2023-08-06T07:18:28;100547.13;;;44.98;27.29
32324;BME280;25666;44.350;9.222;2023-08-06T07:20:54;100545.19;;;43.52;28.70
32324;BME280;25666;44.350;9.222;2023-08-06T07:23:21;100552.59;;;43.76;28.53
32324;BME280;25666;44.350;9.222;2023-08-06T07:25:47;100555.13;;;43.64;28.50
32324;BME280;25666;44.350;9.222;2023-08-06T07:28:13;100552.03;;;43.47;28.36
32324;BME280;25666;44.350;9.222;2023-08-06T07:30:39;100547.31;;;43.29;28.70
32324;BME280;25666;44.350;9.222;2023-08-06T07:33:05;100560.81;;;44.63;27.29
32324;BME280;25666;44.350;9.222;2023-08-06T07:35:31;100554.56;;;43.66;27.25
32324;BME280;25666;44.350;9.222;2023-08-06T07:37:57;100555.66;;;44.23;27.66
32324;BME280;25666;44.350;9.222;2023-08-06T07:40:22;100558.28;;;44.59;26.70
32324;BME280;25666;44.350;9.222;2023-08-06T07:42:48;100559.25;;;43.84;27.42
32324;BME280;25666;44.350;9.222;2023-08-06T07:45:14;100560.41;;;43.66;27.55
32324;BME280;25666;44.350;9.222;2023-08-06T07:47:39;100559.81;;;43.75;27.91
32324;BME280;25666;44.350;9.222;2023-08-06T07:50:05;100557.47;;;43.58;27.66
32324;BME280;25666;44.350;9.222;2023-08-06T07:52:31;100558.44;;;43.31;28.35
32324;BME280;25666;44.350;9.222;2023-08-06T07:54:56;100554.97;;;43.47;28.60
32324;BME280;25666;44.350;9.222;2023-08-06T07:57:22;100568.72;;;42.50;29.23
32324;BME280;25666;44.350;9.222;2023-08-06T07:59:47;100555.72;;;41.25;30.66
32324;BME280;25666;44.350;9.222;2023-08-06T08:02:13;100554.81;;;40.49;32.30
32324;BME280;25666;44.350;9.222;2023-08-06T08:04:38;100548.84;;;39.50;33.77
32324;BME280;25666;44.350;9.222;2023-08-06T08:07:04;100561.22;;;37.82;36.86
32324;BME280;25666;44.350;9.222;2023-08-06T08:09:30;100555.94;;;34.34;50.57
32324;BME280;25666;44.350;9.222;2023-08-06T08:11:55;100565.13;;;32.24;65.28
32324;BME280;25666;44.350;9.222;2023-08-06T08:14:20;100566.28;;;30.69;86.39
32324;BME280;25666;44.350;9.222;2023-08-06T08:16:46;100566.22;;;29.60;100.00
32324;BME280;25666;44.350;9.222;2023-08-06T08:19:11;100561.97;;;29.46;100.00
32324;BME280;25666;44.350;9.222;2023-08-06T08:21:37;100559.22;;;29.01;100.00
32324;BME280;25666;44.350;9.222;2023-08-06T08:24:04;100558.03;;;28.29;100.00
32324;BME280;25666;44.350;9.222;2023-08-06T08:26:29;100562.47;;;28.12;100.00
32324;BME280;25666;44.350;9.222;2023-08-06T08:28:56;100557.88;;;27.26;100.00
32324;BME280;25666;44.350;9.222;2023-08-06T08:31:22;100562.38;;;27.05;100.00
32324;BME280;25666;44.350;9.222;2023-08-06T08:33:47;100559.88;;;26.63;100.00
32324;BME280;25666;44.350;9.222;2023-08-06T08:36:14;100566.00;;;26.53;100.00
32324;BME280;25666;44.350;9.222;2023-08-06T08:38:39;100566.22;;;26.12;100.00
32324;BME280;25666;44.350;9.222;2023-08-06T08:41:05;100563.16;;;26.19;100.00
32324;BME280;25666;44.350;9.222;2023-08-06T08:43:31;100563.78;;;25.88;100.00
32324;BME280;25666;44.350;9.222;2023-08-06T08:46:00;100565.28;;;25.80;100.00
32324;BME280;25666;44.350;9.222;2023-08-06T08:48:27;100568.88;;;26.06;100.00
32324;BME280;25666;44.350;9.222;2023-08-06T08:50:53;100564.47;;;25.80;100.00
32324;BME280;25666;44.350;9.222;2023-08-06T08:53:18;100566.41;;;25.83;100.00
32324;BME280;25666;44.350;9.222;2023-08-06T08:55:48;100574.06;;;25.86;100.00
32324;BME280;25666;44.350;9.222;2023-08-06T08:58:14;100579.97;;;25.91;100.00
32324;BME280;25666;44.350;9.222;2023-08-06T09:00:45;100591.41;;;25.53;100.00
32324;BME280;25666;44.350;9.222;2023-08-06T09:03:11;100595.53;;;25.78;100.00
32324;BME280;25666;44.350;9.222;2023-08-06T09:05:39;100593.34;;;25.69;100.00
32324;BME280;25666;44.350;9.222;2023-08-06T09:08:08;100592.44;;;25.72;100.00
32324;BME280;25666;44.350;9.222;2023-08-06T09:10:36;100596.19;;;25.69;100.00
32324;BME280;25666;44.350;9.222;2023-08-06T09:13:02;100599.72;;;25.73;100.00
32324;BME280;25666;44.350;9.222;2023-08-06T09:15:29;100602.25;;;25.71;100.00
32324;BME280;25666;44.350;9.222;2023-08-06T09:17:55;100598.72;;;25.67;100.00
32324;BME280;25666;44.350;9.222;2023-08-06T09:20:21;100593.69;;;25.71;100.00
32324;BME280;25666;44.350;9.222;2023-08-06T09:22:47;100590.50;;;25.56;100.00
32324;BME280;25666;44.350;9.222;2023-08-06T09:25:23;100593.72;;;25.59;100.00
32324;BME280;25666;44.350;9.222;2023-08-06T09:27:50;100597.69;;;25.61;100.00
32324;BME280;25666;44.350;9.222;2023-08-06T09:30:32;100593.72;;;25.59;100.00
32324;BME280;25666;44.350;9.222;2023-08-06T09:32:58;100594.00;;;25.48;100.00
32324;BME280;25666;44.350;9.222;2023-08-06T09:35:24;100598.28;;;25.56;100.00
32324;BME280;25666;44.350;9.222;2023-08-06T09:37:50;100589.94;;;25.62;100.00
32324;BME280;25666;44.350;9.222;2023-08-06T09:40:42;100593.03;;;25.54;100.00
32324;BME280;25666;44.350;9.222;2023-08-06T09:43:07;100590.75;;;25.62;100.00
32324;BME280;25666;44.350;9.222;2023-08-06T09:45:35;100597.47;;;25.55;100.00
32324;BME280;25666;44.350;9.222;2023-08-06T09:48:05;100598.13;;;25.60;100.00
32324;BME280;25666;44.350;9.222;2023-08-06T09:50:32;100605.78;;;25.63;100.00
32324;BME280;25666;44.350;9.222;2023-08-06T09:53:02;100608.97;;;25.65;100.00
32324;BME280;25666;44.350;9.222;2023-08-06T09:55:28;100605.66;;;25.66;100.00
32324;BME280;25666;44.350;9.222;2023-08-06T09:57:54;100611.63;;;25.59;100.00
32324;BME280;25666;44.350;9.222;2023-08-06T10:00:21;100605.34;;;25.64;100.00
32324;BME280;25666;44.350;9.222;2023-08-06T10:02:48;100608.63;;;25.50;100.00
32324;BME280;25666;44.350;9.222;2023-08-06T10:05:15;100608.50;;;25.53;100.00
32324;BME280;25666;44.350;9.222;2023-08-06T10:07:43;100614.69;;;25.52;100.00
32324;BME280;25666;44.350;9.222;2023-08-06T10:10:09;100612.59;;;25.40;100.00
32324;BME280;25666;44.350;9.222;2023-08-06T10:12:42;100619.88;;;25.41;100.00
32324;BME280;25666;44.350;9.222;2023-08-06T10:15:12;100613.41;;;25.40;100.00
32324;BME280;25666;44.350;9.222;2023-08-06T10:17:39;100621.69;;;25.35;100.00
32324;BME280;25666;44.350;9.222;2023-08-06T10:20:07;100620.72;;;25.54;100.00
32324;BME280;25666;44.350;9.222;2023-08-06T10:22:34;100620.47;;;25.36;100.00
32324;BME280;25666;44.350;9.222;2023-08-06T10:25:00;100613.97;;;25.48;100.00
32324;BME280;25666;44.350;9.222;2023-08-06T10:27:54;100608.72;;;25.46;100.00
32324;BME280;25666;44.350;9.222;2023-08-06T10:30:30;100611.03;;;25.51;100.00
32324;BME280;25666;44.350;9.222;2023-08-06T10:38:19;100624.94;;;25.49;100.00
32324;BME280;25666;44.350;9.222;2023-08-06T10:43:36;100615.94;;;25.51;100.00
32324;BME280;25666;44.350;9.222;2023-08-06T10:46:09;100609.44;;;25.50;100.00
32324;BME280;25666;44.350;9.222;2023-08-06T10:48:37;100614.09;;;25.57;100.00
32324;BME280;25666;44.350;9.222;2023-08-06T10:51:03;100621.41;;;25.58;100.00
32324;BME280;25666;44.350;9.222;2023-08-06T10:53:30;100623.69;;;25.50;100.00
32324;BME280;25666;44.350;9.222;2023-08-06T10:55:55;100628.31;;;25.44;100.00
32324;BME280;25666;44.350;9.222;2023-08-06T10:58:21;100626.38;;;25.41;100.00
32324;BME280;25666;44.350;9.222;2023-08-06T11:00:46;100618.84;;;25.35;100.00
32324;BME280;25666;44.350;9.222;2023-08-06T11:03:12;100619.44;;;25.30;100.00
32324;BME280;25666;44.350;9.222;2023-08-06T11:05:38;100629.22;;;25.41;100.00
32324;BME280;25666;44.350;9.222;2023-08-06T11:08:04;100622.84;;;25.25;100.00
32324;BME280;25666;44.350;9.222;2023-08-06T11:10:32;100621.22;;;25.11;100.00
32324;BME280;25666;44.350;9.222;2023-08-06T11:13:01;100618.50;;;25.20;100.00
32324;BME280;25666;44.350;9.222;2023-08-06T11:15:28;100630.00;;;25.17;100.00
32324;BME280;25666;44.350;9.222;2023-08-06T11:17:53;100630.59;;;25.24;100.00
32324;BME280;25666;44.350;9.222;2023-08-06T11:20:20;100625.69;;;25.37;100.00
32324;BME280;25666;44.350;9.222;2023-08-06T11:22:47;100624.09;;;25.36;100.00
32324;BME280;25666;44.350;9.222;2023-08-06T11:25:14;100623.88;;;25.18;100.00
32324;BME280;25666;44.350;9.222;2023-08-06T11:27:39;100623.75;;;25.09;100.00
32324;BME280;25666;44.350;9.222;2023-08-06T11:30:05;100623.19;;;25.27;100.00
32324;BME280;25666;44.350;9.222;2023-08-06T11:32:31;100614.75;;;25.23;100.00
32324;BME280;25666;44.350;9.222;2023-08-06T11:34:58;100619.09;;;25.40;100.00
32324;BME280;25666;44.350;9.222;2023-08-06T11:40:17;100626.28;;;25.45;100.00
32324;BME280;25666;44.350;9.222;2023-08-06T11:42:46;100621.94;;;25.15;100.00
32324;BME280;25666;44.350;9.222;2023-08-06T11:45:12;100621.47;;;25.29;100.00
32324;BME280;25666;44.350;9.222;2023-08-06T11:47:40;100614.06;;;25.32;100.00
32324;BME280;25666;44.350;9.222;2023-08-06T11:50:06;100612.81;;;25.20;100.00
32324;BME280;25666;44.350;9.222;2023-08-06T11:52:32;100607.34;;;25.26;100.00
32324;BME280;25666;44.350;9.222;2023-08-06T11:55:08;100608.25;;;25.23;100.00
32324;BME280;25666;44.350;9.222;2023-08-06T11:57:38;100608.00;;;25.17;100.00
32324;BME280;25666;44.350;9.222;2023-08-06T12:00:12;100610.53;;;25.28;100.00
32324;BME280;25666;44.350;9.222;2023-08-06T12:02:42;100607.00;;;25.24;100.00
32324;BME280;25666;44.350;9.222;2023-08-06T12:05:15;100606.31;;;25.20;100.00
32324;BME280;25666;44.350;9.222;2023-08-06T12:10:08;100612.34;;;25.34;100.00
32324;BME280;25666;44.350;9.222;2023-08-06T12:12:34;100603.34;;;25.23;100.00
32324;BME280;25666;44.350;9.222;2023-08-06T12:17:42;100601.41;;;25.33;100.00
32324;BME280;25666;44.350;9.222;2023-08-06T12:20:09;100606.44;;;25.41;100.00
32324;BME280;25666;44.350;9.222;2023-08-06T12:22:36;100611.69;;;25.43;100.00
32324;BME280;25666;44.350;9.222;2023-08-06T12:25:05;100614.44;;;25.34;100.00
32324;BME280;25666;44.350;9.222;2023-08-06T12:30:15;100622.97;;;25.46;100.00
32324;BME280;25666;44.350;9.222;2023-08-06T12:32:41;100623.63;;;25.38;100.00
32324;BME280;25666;44.350;9.222;2023-08-06T12:35:07;100622.72;;;25.41;100.00
32324;BME280;25666;44.350;9.222;2023-08-06T12:37:33;100628.78;;;25.30;100.00
32324;BME280;25666;44.350;9.222;2023-08-06T12:39:59;100623.50;;;25.16;100.00
32324;BME280;25666;44.350;9.222;2023-08-06T12:42:24;100633.16;;;25.06;100.00
32324;BME280;25666;44.350;9.222;2023-08-06T12:44:50;100633.84;;;24.97;100.00
32324;BME280;25666;44.350;9.222;2023-08-06T12:47:17;100640.31;;;24.98;100.00
32324;BME280;25666;44.350;9.222;2023-08-06T12:49:42;100632.38;;;25.06;100.00
32324;BME280;25666;44.350;9.222;2023-08-06T12:52:08;100633.84;;;25.10;100.00
32324;BME280;25666;44.350;9.222;2023-08-06T12:54:35;100630.44;;;25.02;100.00
32324;BME280;25666;44.350;9.222;2023-08-06T12:57:04;100628.84;;;25.01;100.00
32324;BME280;25666;44.350;9.222;2023-08-06T12:59:30;100637.81;;;25.00;100.00
32324;BME280;25666;44.350;9.222;2023-08-06T13:01:56;100626.56;;;24.96;100.00
32324;BME280;25666;44.350;9.222;2023-08-06T13:04:22;100635.19;;;24.93;100.00